Time;durP1;ratioP1;P1;durP2;ratioP2;P2;SDS_P1;SDS_P2;PMS_P1;PMS_P2;Temp;Humidity;BMP_temperature;BMP_pressure;BME280_temperature;BME280_humidity;BME280_pressure;Samples;Min_cycle;Max_cycle;Signal;HPM_P1;HPM_P2
2023/01/20 08:21:25;;;;;;;;;29.75;24.50;;;;;3.98;100.00;101709.00;5901333;23;47609;-77
2023/01/20 08:23:53;;;;;;;;;26.75;22.25;;;;;2.63;100.00;101432.34;4939868;28;51673;-78
2023/01/20 08:26:18;;;;;;;;;31.75;27.75;;;;;2.04;100.00;101375.03;4947506;28;49877;-79
2023/01/20 08:28:44;;;;;;;;;31.25;24.50;;;;;1.84;100.00;101324.53;4943651;28;50019;-78
2023/01/20 08:31:12;;;;;;;;;24.75;21.00;;;;;2.72;100.00;101435.50;4942238;28;50098;-76
2023/01/20 08:33:38;;;;;;;;;33.50;27.00;;;;;1.48;100.00;101210.88;4949179;28;50555;-75
2023/01/20 08:36:10;;;;;;;;;25.00;24.00;;;;;2.96;100.00;101474.13;4937938;28;50112;-78
2023/01/20 08:38:35;;;;;;;;;29.00;25.00;;;;;2.64;100.00;101412.50;4939576;28;50024;-78
2023/01/20 08:41:04;;;;;;;;;25.50;22.50;;;;;3.33;100.00;101513.66;4940080;28;50050;-76
2023/01/20 08:43:30;;;;;;;;;20.25;17.75;;;;;3.32;100.00;101517.03;4950014;28;50344;-74
2023/01/20 08:46:02;;;;;;;;;28.00;26.75;;;;;2.20;100.00;101350.97;4934357;28;49719;-75
2023/01/20 08:48:28;;;;;;;;;31.75;28.50;;;;;2.59;100.00;101401.81;4938095;28;49821;-75
2023/01/20 08:50:53;;;;;;;;;24.75;22.25;;;;;3.16;100.00;101471.97;4943860;28;49617;-74
2023/01/20 08:53:19;;;;;;;;;21.00;19.25;;;;;3.00;100.00;101450.22;4938925;28;49812;-74
2023/01/20 08:55:56;;;;;;;;;25.00;25.00;;;;;4.39;100.00;101698.53;4941841;28;49898;-77
2023/01/20 08:58:21;;;;;;;;;18.25;17.00;;;;;4.12;100.00;101650.06;4940202;28;50130;-75
2023/01/20 09:00:47;;;;;;;;;27.50;22.50;;;;;3.51;100.00;101582.28;4936054;28;49843;-74
2023/01/20 09:03:12;;;;;;;;;30.75;25.25;;;;;2.98;100.00;101451.78;4938410;28;51511;-79
2023/01/20 09:05:38;;;;;;;;;25.00;23.25;;;;;4.48;100.00;101718.97;4943697;28;50068;-80
2023/01/20 09:08:03;;;;;;;;;11.75;9.00;;;;;4.52;100.00;101706.25;4941742;28;49872;-76
2023/01/20 09:10:31;;;;;;;;;23.25;19.75;;;;;4.56;100.00;101712.53;4961511;28;49866;-76
2023/01/20 09:12:57;;;;;;;;;20.00;13.25;;;;;3.54;100.00;101540.91;4937130;28;50650;-77
2023/01/20 09:15:22;;;;;;;;;24.50;20.75;;;;;4.36;100.00;101674.94;4934173;28;49825;-74
2023/01/20 09:17:47;;;;;;;;;22.75;19.25;;;;;4.11;100.00;101633.56;4938739;28;50696;-73
2023/01/20 09:20:13;;;;;;;;;23.75;23.50;;;;;3.58;100.00;101518.66;4934025;28;50016;-75
2023/01/20 09:22:39;;;;;;;;;11.75;9.50;;;;;3.77;100.00;101572.59;4939480;28;49838;-75
2023/01/20 09:25:06;;;;;;;;;16.50;13.75;;;;;4.68;100.00;101722.78;4943671;28;49638;-76
2023/01/20 09:27:31;;;;;;;;;17.50;17.50;;;;;3.47;100.00;101501.50;4943268;28;50009;-75
2023/01/20 09:29:59;;;;;;;;;10.25;9.25;;;;;4.07;100.00;101609.94;4945821;28;49778;-78
2023/01/20 09:32:24;;;;;;;;;14.75;12.25;;;;;2.87;100.00;101454.59;4944538;28;50064;-76
2023/01/20 09:34:49;;;;;;;;;16.25;14.25;;;;;4.64;100.00;101750.31;4950124;28;49928;-77
2023/01/20 09:46:27;;;;;;;;;21.00;17.00;;;;;4.93;100.00;101744.25;4949189;28;49891;-75
2023/01/20 09:54:49;;;;;;;;;18.00;16.50;;;;;4.70;100.00;101666.53;4937239;28;50383;-78
2023/01/20 09:57:20;;;;;;;;;17.00;14.00;;;;;4.01;100.00;101564.56;4936791;28;49794;-74
2023/01/20 09:59:59;;;;;;;;;13.25;12.75;;;;;4.49;100.00;101634.97;4945919;28;49811;-74
2023/01/20 10:02:30;;;;;;;;;19.00;15.50;;;;;5.04;100.00;101677.22;4946925;28;49828;-74
2023/01/20 10:05:02;;;;;;;;;20.00;16.25;;;;;5.41;100.00;101766.13;4941137;28;50848;-75
2023/01/20 10:07:49;;;;;;;;;19.75;16.75;;;;;5.49;100.00;101728.38;4951938;28;49966;-73
2023/01/20 10:10:26;;;;;;;;;18.75;15.25;;;;;5.58;100.00;101743.63;4951581;28;49827;-74
2023/01/20 10:13:15;;;;;;;;;15.00;15.00;;;;;5.60;100.00;101722.09;4953551;28;49799;-73
2023/01/20 10:15:52;;;;;;;;;15.50;15.50;;;;;4.69;100.00;101591.91;4932554;28;50968;-72
2023/01/20 10:18:41;;;;;;;;;16.25;12.50;;;;;5.58;100.00;101726.28;4936468;28;50004;-71
2023/01/20 10:21:13;;;;;;;;;13.00;11.25;;;;;5.65;100.00;101743.16;4935436;28;49799;-72
2023/01/20 10:23:53;;;;;;;;;13.50;12.50;;;;;4.00;100.00;101456.25;4933423;28;49815;-72
2023/01/20 10:26:28;;;;;;;;;13.75;9.50;;;;;4.37;100.00;101536.38;4934485;28;51158;-76
2023/01/20 10:29:00;;;;;;;;;10.25;10.00;;;;;4.96;100.00;101614.31;4935866;28;49863;-74
2023/01/20 10:31:29;;;;;;;;;8.00;8.00;;;;;5.31;100.00;101667.47;4951612;28;49739;-74
2023/01/20 10:34:04;;;;;;;;;11.25;10.25;;;;;4.76;100.00;101600.16;4953067;28;49839;-73
2023/01/20 10:36:33;;;;;;;;;14.75;10.25;;;;;5.86;100.00;101740.84;4946284;28;49892;-73
2023/01/20 10:39:10;;;;;;;;;13.25;10.50;;;;;5.00;100.00;101590.25;4942718;28;49961;-74
2023/01/20 10:41:46;;;;;;;;;10.50;9.75;;;;;4.29;100.00;101459.63;4935539;28;50364;-73
2023/01/20 10:44:13;;;;;;;;;14.00;10.00;;;;;4.73;100.00;101545.38;4938124;28;50032;-73
2023/01/20 10:46:53;;;;;;;;;9.75;7.50;;;;;5.73;100.00;101677.66;4941258;28;51438;-75
2023/01/20 10:49:40;;;;;;;;;3.50;3.50;;;;;6.19;100.00;101753.19;4953688;28;49979;-76
2023/01/20 10:52:37;;;;;;;;;7.00;6.50;;;;;6.20;100.00;101743.66;4942075;28;50065;-76
2023/01/20 10:55:37;;;;;;;;;14.50;13.25;;;;;6.27;100.00;101770.13;4944547;28;50016;-76
2023/01/20 10:58:35;;;;;;;;;14.75;12.00;;;;;5.84;100.00;101654.78;4938191;28;49825;-78
2023/01/20 11:01:04;;;;;;;;;10.25;7.50;;;;;5.03;100.00;101547.91;4949901;28;50130;-76
2023/01/20 11:03:39;;;;;;;;;9.75;8.50;;;;;5.81;100.00;101700.63;4933599;28;49928;-78
2023/01/20 11:06:05;;;;;;;;;6.75;6.00;;;;;5.71;100.00;101687.09;4939203;28;49795;-76
2023/01/20 11:08:31;;;;;;;;;8.50;7.00;;;;;4.88;100.00;101527.13;4938726;28;50286;-76
2023/01/20 11:11:00;;;;;;;;;8.50;7.50;;;;;5.94;100.00;101735.28;4944786;28;50055;-75
2023/01/20 11:13:26;;;;;;;;;10.50;10.00;;;;;5.10;100.00;101591.66;4932533;28;49924;-74
2023/01/20 11:16:02;;;;;;;;;8.00;6.00;;;;;4.64;100.00;101510.16;4934010;28;49761;-74
2023/01/20 11:18:30;;;;;;;;;10.25;9.00;;;;;4.33;100.00;101513.56;4934627;28;51286;-70
2023/01/20 11:21:03;;;;;;;;;12.50;11.50;;;;;5.96;100.00;101737.97;4938856;28;49895;-81
2023/01/20 11:23:48;;;;;;;;;9.50;9.50;;;;;5.54;100.00;101655.72;4951411;28;49830;-81
2023/01/20 11:26:35;;;;;;;;;6.75;6.75;;;;;3.90;100.00;101370.81;4955358;28;49929;-80
2023/01/20 11:29:10;;;;;;;;;10.50;9.50;;;;;5.58;100.00;101636.84;4946698;28;51485;-79
2023/01/20 11:31:56;;;;;;;;;9.75;9.75;;;;;6.22;100.00;101779.41;4951906;28;49775;-78
2023/01/20 11:34:24;;;;;;;;;13.75;10.00;;;;;5.83;100.00;101654.72;4951046;28;49711;-79
2023/01/20 11:37:10;;;;;;;;;13.50;11.50;;;;;5.07;100.00;101534.25;4938072;28;49736;-78
2023/01/20 11:39:50;;;;;;;;;14.50;10.50;;;;;6.16;100.00;101759.91;4947106;28;52424;-79
2023/01/20 11:42:24;;;;;;;;;14.50;10.75;;;;;5.28;100.00;101592.69;4940242;28;49817;-74
2023/01/20 11:44:52;;;;;;;;;9.75;7.00;;;;;5.07;100.00;101562.88;4951585;28;49662;-77
2023/01/20 11:47:35;;;;;;;;;10.00;7.00;;;;;5.26;100.00;101606.44;4946003;28;49805;-77
2023/01/20 11:50:04;;;;;;;;;10.00;10.00;;;;;5.27;100.00;101587.41;4931943;28;50587;-80
2023/01/20 11:52:31;;;;;;;;;8.75;6.75;;;;;3.39;100.00;101272.66;4936232;28;49802;-81
2023/01/20 11:55:16;;;;;;;;;9.00;6.00;;;;;6.11;100.00;101783.16;4939903;28;50427;-79
2023/01/20 11:58:01;;;;;;;;;9.00;7.00;;;;;5.56;100.00;101634.16;4952349;28;49658;-79
2023/01/20 12:00:30;;;;;;;;;9.50;6.75;;;;;4.87;100.00;101497.59;4948484;28;50061;-78
2023/01/20 12:02:59;;;;;;;;;9.25;9.25;;;;;5.06;100.00;101538.56;4946564;28;50103;-78
2023/01/20 12:05:52;;;;;;;;;10.25;8.00;;;;;5.66;100.00;101652.06;4946895;28;50252;-79
2023/01/20 12:08:25;;;;;;;;;7.50;6.00;;;;;3.77;100.00;101320.69;4945845;28;49839;-80
2023/01/20 12:10:52;;;;;;;;;7.50;7.50;;;;;4.56;100.00;101436.91;4943632;28;49787;-77
2023/01/20 12:13:23;;;;;;;;;12.50;9.75;;;;;6.33;100.00;101774.78;4939637;28;49811;-78
2023/01/20 12:15:55;;;;;;;;;11.00;9.00;;;;;5.24;100.00;101535.16;4937565;28;49692;-76
2023/01/20 12:18:46;;;;;;;;;9.75;9.75;;;;;6.39;100.00;101748.13;4943406;28;50157;-78
2023/01/20 12:21:16;;;;;;;;;9.75;9.75;;;;;6.00;100.00;101677.41;4945372;28;50705;-76
2023/01/20 12:24:01;;;;;;;;;10.00;9.25;;;;;6.14;100.00;101670.31;4952896;28;50062;-66
2023/01/20 12:26:27;;;;;;;;;8.00;8.00;;;;;6.08;100.00;101663.06;4935435;28;49964;-64
2023/01/20 12:29:04;;;;;;;;;9.25;9.25;;;;;6.51;100.00;101720.97;4951143;28;50382;-66
2023/01/20 12:31:30;;;;;;;;;12.75;8.50;;;;;6.34;100.00;101698.31;4934336;28;50765;-65
2023/01/20 12:34:01;;;;;;;;;10.50;9.50;;;;;6.57;100.00;101728.25;4936191;28;50097;-65
2023/01/20 12:37:03;;;;;;;;;13.75;10.25;;;;;6.62;100.00;101726.75;4948993;28;49790;-66
2023/01/20 12:39:47;;;;;;;;;7.50;6.50;;;;;6.67;100.00;101727.00;4939438;28;49683;-67
2023/01/20 12:42:36;;;;;;;;;11.75;9.50;;;;;6.70;100.00;101728.06;4934327;28;49779;-73
2023/01/20 12:45:35;;;;;;;;;10.50;7.00;;;;;6.09;100.00;101620.53;4937426;28;49880;-67
2023/01/20 12:48:15;;;;;;;;;16.00;11.00;;;;;6.79;100.00;101725.03;4941339;28;49727;-67
2023/01/20 12:51:15;;;;;;;;;5.00;5.00;;;;;6.72;100.00;101715.06;4949316;28;49533;-77
2023/01/20 12:53:49;;;;;;;;;10.75;10.00;;;;;6.83;100.00;101726.97;4944280;28;49830;-66
2023/01/20 12:56:40;;;;;;;;;6.00;6.00;;;;;6.74;100.00;101698.66;4952824;28;49767;-67
2023/01/20 12:59:27;;;;;;;;;8.50;8.50;;;;;6.87;100.00;101716.78;4939471;28;49866;-67
2023/01/20 13:02:03;;;;;;;;;7.00;7.00;;;;;6.84;100.00;101715.69;4935301;28;49904;-67
2023/01/20 13:04:31;;;;;;;;;9.75;7.75;;;;;6.95;100.00;101705.78;4939059;28;49999;-66
2023/01/20 13:07:15;;;;;;;;;7.00;6.00;;;;;6.98;100.00;101709.47;4955827;28;50130;-66
2023/01/20 13:10:07;;;;;;;;;5.75;5.75;;;;;7.03;100.00;101696.63;4934505;28;50442;-64
2023/01/20 13:12:47;;;;;;;;;6.25;6.25;;;;;6.69;100.00;101632.31;4945311;28;49759;-67
2023/01/20 13:15:54;;;;;;;;;7.50;7.50;;;;;7.02;100.00;101647.84;4939576;28;50980;-67
2023/01/20 13:18:34;;;;;;;;;8.50;7.25;;;;;6.58;100.00;101547.41;4892355;28;50092;-67
2023/01/20 13:20:59;;;;;;;;;5.75;5.75;;;;;7.45;100.00;101680.47;4930984;28;49855;-67
2023/01/20 13:23:34;;;;;;;;;6.00;6.00;;;;;7.57;100.00;101687.09;4934420;28;49877;-68
2023/01/20 13:26:02;;;;;;;;;6.50;6.50;;;;;7.22;100.00;101626.22;4933819;28;49899;-67
2023/01/20 13:28:29;;;;;;;;;8.00;6.25;;;;;7.57;100.00;101684.50;4933976;28;49812;-68
2023/01/20 13:31:00;;;;;;;;;11.50;7.50;;;;;6.94;100.00;101581.31;4933905;28;49844;-67
2023/01/20 13:33:36;;;;;;;;;6.50;6.50;;;;;7.51;100.00;101681.56;4934097;28;49776;-73
2023/01/20 13:36:17;;;;;;;;;9.50;6.50;;;;;7.53;100.00;101686.06;4933346;28;51064;-70
2023/01/20 13:38:43;;;;;;;;;7.75;7.50;;;;;7.29;100.00;101638.75;4933884;28;49795;-74
2023/01/20 13:41:09;;;;;;;;;4.75;4.75;;;;;6.79;100.00;101558.00;4933819;28;49878;-70
2023/01/20 13:43:41;;;;;;;;;8.25;5.00;;;;;7.60;100.00;101688.13;4934132;28;49748;-67
2023/01/20 13:46:16;;;;;;;;;7.50;6.00;;;;;7.63;100.00;101692.63;4933768;28;49848;-70
2023/01/20 13:49:18;;;;;;;;;6.75;5.25;;;;;7.64;100.00;101686.56;4936038;28;49780;-75
2023/01/20 13:51:45;;;;;;;;;5.25;4.75;;;;;7.37;100.00;101626.06;4935392;28;49967;-73
2023/01/20 13:54:31;;;;;;;;;5.50;5.00;;;;;7.86;100.00;101686.75;4940343;28;49727;-71
2023/01/20 13:57:22;;;;;;;;;7.50;7.00;;;;;7.95;100.00;101684.56;4936617;28;50483;-71
2023/01/20 13:59:49;;;;;;;;;7.50;5.50;;;;;7.34;100.00;101561.53;4935453;28;50098;-71
2023/01/20 14:02:23;;;;;;;;;6.75;6.00;;;;;8.11;100.00;101680.03;4934824;28;49735;-69
2023/01/20 14:04:49;;;;;;;;;7.00;5.50;;;;;7.78;100.00;101614.03;4934654;28;49961;-72
2023/01/20 14:07:25;;;;;;;;;6.75;6.75;;;;;8.22;100.00;101684.03;4936019;28;49893;-69
2023/01/20 14:09:52;;;;;;;;;6.25;5.00;;;;;8.24;100.00;101685.00;4933362;28;50012;-70
2023/01/20 14:12:17;;;;;;;;;5.25;5.25;;;;;7.88;100.00;101640.66;4940887;28;49945;-69
2023/01/20 14:14:46;;;;;;;;;4.25;4.25;;;;;7.39;100.00;101553.88;4955883;28;49876;-67
2023/01/20 14:17:23;;;;;;;;;4.75;4.00;;;;;8.12;100.00;101695.78;4951917;28;49846;-73
2023/01/20 14:19:54;;;;;;;;;7.00;7.00;;;;;7.78;100.00;101634.94;4952900;28;49786;-70
2023/01/20 14:22:25;;;;;;;;;5.50;5.50;;;;;7.26;100.00;101528.94;4963898;28;49690;-68
2023/01/20 14:24:52;;;;;;;;;3.25;2.25;;;;;8.17;100.00;101693.38;4954212;28;49998;-69
2023/01/20 14:27:20;;;;;;;;;6.00;5.00;;;;;8.16;100.00;101697.72;4951459;28;51178;-79
2023/01/20 14:29:47;;;;;;;;;7.75;3.25;;;;;6.95;100.00;101508.34;4951963;28;49872;-76
2023/01/20 14:32:34;;;;;;;;;8.25;7.25;;;;;8.20;100.00;101694.44;4951050;28;49789;-68
2023/01/20 14:35:01;;;;;;;;;8.25;6.75;;;;;8.27;100.00;101696.47;4939794;28;49969;-68
2023/01/20 14:37:32;;;;;;;;;5.75;5.75;;;;;7.96;100.00;101644.50;4949444;28;49885;-69
2023/01/20 14:40:06;;;;;;;;;4.00;3.50;;;;;8.35;100.00;101699.47;4941707;28;50087;-68
2023/01/20 14:42:32;;;;;;;;;5.50;5.00;;;;;8.35;100.00;101704.69;4935304;28;50049;-69
2023/01/20 14:44:57;;;;;;;;;6.75;3.75;;;;;8.19;100.00;101669.06;4943379;28;49787;-72
2023/01/20 14:47:24;;;;;;;;;6.25;5.25;;;;;7.80;100.00;101639.41;4955682;28;50874;-72
2023/01/20 14:49:52;;;;;;;;;6.50;5.00;;;;;8.17;100.00;101664.59;4941237;28;49706;-68
2023/01/20 14:52:29;;;;;;;;;3.25;3.00;;;;;8.15;100.00;101669.78;4937876;28;49894;-68
2023/01/20 14:54:55;;;;;;;;;11.25;8.50;;;;;7.25;100.00;101511.47;4935684;28;49936;-73
2023/01/20 14:57:31;;;;;;;;;7.00;5.00;;;;;8.29;100.00;101699.16;4938519;28;50574;-73
2023/01/20 15:00:17;;;;;;;;;4.75;4.75;;;;;8.24;100.00;101695.44;4943159;28;49992;-70
2023/01/20 15:03:10;;;;;;;;;6.00;3.75;;;;;8.13;100.00;101700.19;4951909;28;49723;-70
2023/01/20 15:05:37;;;;;;;;;6.25;5.00;;;;;7.35;100.00;101601.59;4951591;28;49914;-75
2023/01/20 15:08:20;;;;;;;;;1.75;1.25;;;;;7.94;100.00;101703.69;4955635;28;49666;-75
2023/01/20 15:11:06;;;;;;;;;5.25;2.50;;;;;7.49;100.00;101630.97;4954861;28;49605;-69
2023/01/20 15:13:31;;;;;;;;;6.00;5.75;;;;;7.24;100.00;101608.94;4950673;28;49828;-68
2023/01/20 15:16:16;;;;;;;;;7.75;6.25;;;;;7.83;100.00;101710.13;4935521;28;49784;-69
2023/01/20 15:18:41;;;;;;;;;7.75;6.00;;;;;6.85;100.00;101548.75;4936710;28;49879;-68
2023/01/20 15:21:11;;;;;;;;;9.75;8.00;;;;;7.21;100.00;101618.31;4937752;28;49703;-70
2023/01/20 15:23:40;;;;;;;;;7.75;5.00;;;;;7.35;100.00;101670.41;4941482;28;50191;-68
2023/01/20 15:26:23;;;;;;;;;5.50;5.00;;;;;7.72;100.00;101727.00;4932343;28;50624;-69
2023/01/20 15:28:48;;;;;;;;;7.00;7.00;;;;;7.52;100.00;101678.13;4931995;28;51053;-73
2023/01/20 15:31:15;;;;;;;;;5.75;5.25;;;;;6.70;100.00;101575.81;4932027;28;49618;-70
2023/01/20 15:33:41;;;;;;;;;6.50;5.25;;;;;7.43;100.00;101683.81;4939547;28;49269;-71
2023/01/20 15:36:35;;;;;;;;;2.25;2.25;;;;;7.71;100.00;101725.22;4932480;28;49669;-69
2023/01/20 15:39:01;;;;;;;;;4.00;3.00;;;;;7.13;100.00;101625.78;4930641;28;50568;-73
2023/01/20 15:41:26;;;;;;;;;8.00;8.00;;;;;7.11;100.00;101638.75;4933120;28;50017;-73
2023/01/20 15:43:52;;;;;;;;;6.75;5.50;;;;;7.39;100.00;101674.03;4935298;28;49810;-72
2023/01/20 15:46:18;;;;;;;;;4.50;4.50;;;;;7.77;100.00;101738.59;4936907;28;50174;-70
2023/01/20 15:48:44;;;;;;;;;4.00;4.00;;;;;7.42;100.00;101689.84;4935775;28;50899;-69
2023/01/20 15:51:15;;;;;;;;;5.00;5.00;;;;;7.39;100.00;101727.19;4943678;28;49801;-69
2023/01/20 15:53:41;;;;;;;;;6.25;6.25;;;;;7.35;100.00;101680.84;4956225;28;49754;-68
2023/01/20 15:56:25;;;;;;;;;6.00;6.00;;;;;7.26;100.00;101659.50;4959650;28;50061;-68
2023/01/20 15:58:51;;;;;;;;;6.75;6.25;;;;;7.46;100.00;101699.66;4952206;28;50021;-69
2023/01/20 16:01:19;;;;;;;;;8.25;5.75;;;;;7.30;100.00;101674.50;4953870;28;49898;-71
2023/01/20 16:03:45;;;;;;;;;5.00;5.00;;;;;6.67;100.00;101625.25;4954777;28;50058;-68
2023/01/20 16:06:14;;;;;;;;;6.00;6.00;;;;;6.92;100.00;101643.91;4943688;28;49787;-75
2023/01/20 16:08:40;;;;;;;;;3.50;3.50;;;;;7.32;100.00;101718.97;4948985;28;49724;-72
2023/01/20 16:11:06;;;;;;;;;6.25;6.00;;;;;6.96;100.00;101682.41;4937157;28;49654;-72
2023/01/20 16:13:32;;;;;;;;;7.25;7.25;;;;;6.97;100.00;101693.75;4934559;28;49703;-75
2023/01/20 16:15:58;;;;;;;;;8.00;7.25;;;;;7.26;100.00;101756.16;4947392;28;50092;-72
2023/01/20 16:18:23;;;;;;;;;9.50;8.50;;;;;6.18;100.00;101565.38;4941087;28;50193;-73
2023/01/20 16:20:48;;;;;;;;;10.00;7.25;;;;;6.03;100.00;101555.06;4934433;28;49760;-71
2023/01/20 16:23:14;;;;;;;;;4.00;4.00;;;;;7.27;100.00;101785.78;4933400;28;49732;-73
2023/01/20 16:25:42;;;;;;;;;8.50;7.25;;;;;6.26;100.00;101619.69;4943453;28;49826;-69
2023/01/20 16:28:10;;;;;;;;;10.50;9.00;;;;;7.21;100.00;101782.84;4952135;28;49888;-70
2023/01/20 16:30:35;;;;;;;;;9.75;9.25;;;;;6.72;100.00;101715.06;4933983;28;49633;-70
2023/01/20 16:33:01;;;;;;;;;6.25;5.50;;;;;6.68;100.00;101740.13;4935527;28;49879;-74
2023/01/20 16:35:26;;;;;;;;;13.75;11.25;;;;;7.02;100.00;101799.28;4952731;28;49895;-77
2023/01/20 16:37:52;;;;;;;;;7.25;6.25;;;;;7.02;100.00;101797.56;4953230;28;50802;-71
2023/01/20 16:40:19;;;;;;;;;7.25;7.25;;;;;6.45;100.00;101706.72;4953700;28;49853;-74
2023/01/20 16:42:46;;;;;;;;;7.75;7.75;;;;;6.71;100.00;101768.97;4953703;28;49834;-74
2023/01/20 16:45:27;;;;;;;;;9.25;9.25;;;;;6.87;100.00;101807.22;4953721;28;49770;-70
2023/01/20 16:47:53;;;;;;;;;11.25;11.25;;;;;5.54;100.00;101578.50;4945429;28;50785;-71
2023/01/20 16:50:19;;;;;;;;;8.00;5.50;;;;;4.85;100.00;101507.03;4934156;28;49922;-73
2023/01/20 16:52:45;;;;;;;;;10.25;7.75;;;;;5.38;100.00;101583.66;4935764;28;49825;-71
2023/01/20 16:55:10;;;;;;;;;11.50;8.75;;;;;6.49;100.00;101777.41;4952133;28;49880;-74
2023/01/20 16:57:36;;;;;;;;;11.25;11.00;;;;;6.64;100.00;101807.72;4951101;28;51472;-73
2023/01/20 17:00:04;;;;;;;;;8.25;6.75;;;;;5.64;100.00;101679.75;4953157;28;49983;-70
2023/01/20 17:02:32;;;;;;;;;12.00;9.75;;;;;6.59;100.00;101812.69;4954512;28;49787;-68
2023/01/20 17:04:58;;;;;;;;;11.50;9.75;;;;;6.52;100.00;101816.69;4956636;28;49831;-69
2023/01/20 17:07:23;;;;;;;;;10.00;9.50;;;;;5.94;100.00;101722.25;4952384;28;50787;-68
2023/01/20 17:09:49;;;;;;;;;12.50;11.00;;;;;6.31;100.00;101807.69;4952596;28;49889;-68
2023/01/20 17:12:15;;;;;;;;;10.25;9.50;;;;;5.64;100.00;101681.47;4953053;28;49925;-68
2023/01/20 17:14:41;;;;;;;;;12.25;10.25;;;;;6.09;100.00;101774.34;4953026;28;49779;-69
2023/01/20 17:17:06;;;;;;;;;6.25;6.00;;;;;5.26;100.00;101658.50;4952453;28;50672;-74
2023/01/20 17:19:31;;;;;;;;;11.00;7.25;;;;;5.79;100.00;101723.09;4952271;28;49657;-70
2023/01/20 17:21:57;;;;;;;;;11.50;9.75;;;;;6.15;100.00;101805.94;4943179;28;49855;-70
2023/01/20 17:24:22;;;;;;;;;8.25;7.50;;;;;4.36;100.00;101547.56;4946832;28;49865;-70
2023/01/20 17:26:48;;;;;;;;;6.75;6.25;;;;;5.65;100.00;101745.78;4937420;28;49653;-71
2023/01/20 17:29:13;;;;;;;;;12.25;8.50;;;;;5.08;100.00;101686.97;4938801;28;49191;-71
2023/01/20 17:31:39;;;;;;;;;13.75;10.25;;;;;5.68;100.00;101759.84;4933743;28;49701;-77
2023/01/20 17:34:05;;;;;;;;;11.75;9.00;;;;;4.81;100.00;101660.25;4938668;28;49864;-70
2023/01/20 17:36:34;;;;;;;;;11.00;11.00;;;;;5.81;100.00;101792.72;4944550;28;49873;-70
2023/01/20 17:39:04;;;;;;;;;17.75;15.00;;;;;4.66;100.00;101607.34;4939713;28;50369;-74
2023/01/20 17:41:29;;;;;;;;;22.00;14.50;;;;;4.78;100.00;101655.78;4949035;28;50083;-71
2023/01/20 17:43:55;;;;;;;;;14.25;14.25;;;;;5.07;100.00;101683.47;4936727;28;49937;-72
2023/01/20 17:46:23;;;;;;;;;15.00;14.75;;;;;5.43;100.00;101741.06;4938837;28;49854;-71
2023/01/20 17:48:49;;;;;;;;;21.75;19.00;;;;;5.41;100.00;101750.50;4934811;28;49943;-72
2023/01/20 17:51:22;;;;;;;;;25.75;22.00;;;;;5.59;100.00;101788.00;4951306;28;49919;-70
2023/01/20 17:53:48;;;;;;;;;20.75;17.00;;;;;5.91;100.00;101852.41;4957026;28;49851;-72
2023/01/20 17:56:15;;;;;;;;;18.00;17.00;;;;;5.90;100.00;101855.84;4935523;28;52134;-67
2023/01/20 17:58:43;;;;;;;;;18.25;15.75;;;;;5.50;100.00;101808.34;4952084;28;49858;-69
2023/01/20 18:01:09;;;;;;;;;23.00;21.25;;;;;5.04;100.00;101716.25;4938898;28;49830;-69
2023/01/20 18:03:35;;;;;;;;;16.75;14.25;;;;;4.48;100.00;101631.47;4952609;28;49814;-69
2023/01/20 18:06:00;;;;;;;;;19.00;19.00;;;;;5.61;100.00;101824.56;4952777;28;49626;-73
2023/01/20 18:08:26;;;;;;;;;23.00;20.75;;;;;5.52;100.00;101811.91;4952964;28;49955;-75
2023/01/20 18:10:51;;;;;;;;;18.75;18.75;;;;;4.65;100.00;101663.69;4951736;28;49818;-71
2023/01/20 18:13:16;;;;;;;;;19.50;18.25;;;;;5.02;100.00;101736.97;4951815;28;49865;-74
2023/01/20 18:15:42;;;;;;;;;19.25;18.50;;;;;5.46;100.00;101835.00;4952280;28;49707;-68
2023/01/20 18:18:07;;;;;;;;;15.50;14.25;;;;;4.44;100.00;101632.13;4952764;28;49719;-68
2023/01/20 18:20:32;;;;;;;;;18.50;17.00;;;;;5.58;100.00;101829.59;4943011;28;49968;-74
2023/01/20 18:22:58;;;;;;;;;13.50;13.50;;;;;5.03;100.00;101762.19;4940166;28;49938;-69
2023/01/20 18:25:23;;;;;;;;;12.00;9.75;;;;;5.56;100.00;101834.72;4933172;28;50009;-69
2023/01/20 18:27:48;;;;;;;;;20.25;17.25;;;;;5.66;100.00;101870.00;4937010;28;49945;-70
2023/01/20 18:30:14;;;;;;;;;15.75;15.75;;;;;5.16;100.00;101775.09;4936078;28;49796;-70
2023/01/20 18:32:39;;;;;;;;;15.75;14.25;;;;;4.23;100.00;101620.41;4940072;28;50164;-68
2023/01/20 18:35:05;;;;;;;;;17.25;15.50;;;;;5.48;100.00;101843.78;4947765;28;49585;-70
2023/01/20 18:37:31;;;;;;;;;15.00;13.75;;;;;5.62;100.00;101863.72;4963719;28;49808;-70
2023/01/20 18:39:56;;;;;;;;;19.75;19.25;;;;;4.47;100.00;101728.50;4944379;28;49826;-73
2023/01/20 18:42:22;;;;;;;;;18.75;17.75;;;;;5.27;100.00;101814.78;4933262;28;49661;-73
2023/01/20 18:44:47;;;;;;;;;15.25;13.25;;;;;5.60;100.00;101888.81;4932810;28;50790;-70
2023/01/20 18:47:13;;;;;;;;;17.50;14.50;;;;;5.13;100.00;101815.69;4932838;28;49882;-69
2023/01/20 18:49:38;;;;;;;;;15.75;15.75;;;;;4.39;100.00;101734.03;4931279;28;49907;-70
2023/01/20 18:52:03;;;;;;;;;17.50;17.00;;;;;4.60;100.00;101728.41;4933227;28;49797;-70
2023/01/20 18:54:31;;;;;;;;;18.50;17.25;;;;;5.53;100.00;101884.03;4932576;28;51227;-67
2023/01/20 18:56:57;;;;;;;;;19.00;17.75;;;;;5.44;100.00;101875.66;4932706;28;49877;-69
2023/01/20 18:59:23;;;;;;;;;19.75;17.25;;;;;5.51;100.00;101903.88;4932673;28;49831;-70
2023/01/20 19:01:49;;;;;;;;;16.00;14.50;;;;;5.07;100.00;101813.59;4932867;28;49732;-66
2023/01/20 19:04:14;;;;;;;;;17.75;15.50;;;;;4.81;100.00;101765.22;4932563;28;51168;-68
2023/01/20 19:06:43;;;;;;;;;12.25;12.25;;;;;5.58;100.00;101892.09;4932329;28;50318;-73
2023/01/20 19:09:09;;;;;;;;;21.25;19.00;;;;;5.23;100.00;101822.34;4932845;28;49837;-66
2023/01/20 19:11:38;;;;;;;;;22.00;18.50;;;;;5.66;100.00;101885.63;4939220;28;49773;-65
2023/01/20 19:14:05;;;;;;;;;23.75;23.50;;;;;5.70;100.00;101898.06;4931499;28;50767;-70
2023/01/20 19:16:35;;;;;;;;;22.00;20.25;;;;;5.06;100.00;101783.19;4931719;28;49896;-68
2023/01/20 19:19:03;;;;;;;;;15.25;15.25;;;;;5.75;100.00;101891.38;4939251;28;49831;-66
2023/01/20 19:21:31;;;;;;;;;17.50;16.00;;;;;5.34;100.00;101823.88;4944802;28;50218;-68
2023/01/20 19:23:58;;;;;;;;;20.50;15.00;;;;;5.81;100.00;101901.28;4931129;28;52473;-66
2023/01/20 19:26:25;;;;;;;;;25.00;21.75;;;;;5.85;100.00;101903.25;4932580;28;49822;-72
2023/01/20 19:28:57;;;;;;;;;26.00;19.50;;;;;5.89;100.00;101913.06;4932777;28;49883;-72
2023/01/20 19:31:23;;;;;;;;;18.50;18.50;;;;;5.93;100.00;101908.13;4939060;28;49666;-67
2023/01/20 19:33:48;;;;;;;;;21.50;18.25;;;;;5.78;100.00;101885.44;4932159;28;50775;-67
2023/01/20 19:36:15;;;;;;;;;23.75;20.50;;;;;6.00;100.00;101915.50;4944263;28;49707;-63
2023/01/20 19:38:42;;;;;;;;;20.50;20.50;;;;;5.80;100.00;101876.94;4932361;28;49733;-68
2023/01/20 19:41:14;;;;;;;;;26.75;23.75;;;;;5.83;100.00;101876.19;4932451;28;49863;-64
2023/01/20 19:43:40;;;;;;;;;28.75;26.25;;;;;6.03;100.00;101899.13;4943434;28;50757;-68
2023/01/20 19:46:11;;;;;;;;;21.50;19.00;;;;;5.73;100.00;101844.41;4939049;28;49808;-68
2023/01/20 19:48:37;;;;;;;;;24.50;20.75;;;;;6.06;100.00;101883.66;4945518;28;49903;-71
2023/01/20 19:51:08;;;;;;;;;23.25;19.50;;;;;6.08;100.00;101897.69;4945340;28;49946;-77
2023/01/20 19:53:34;;;;;;;;;23.00;21.50;;;;;5.86;100.00;101856.41;4930784;28;52703;-76
2023/01/20 19:56:03;;;;;;;;;24.25;22.75;;;;;6.19;100.00;101919.16;4945195;28;49938;-63
2023/01/20 19:58:28;;;;;;;;;30.25;25.00;;;;;5.78;100.00;101841.16;4944474;28;49811;-69
2023/01/20 20:00:54;;;;;;;;;33.00;26.50;;;;;6.22;100.00;101924.53;4932426;28;49932;-67
2023/01/20 20:03:19;;;;;;;;;25.25;22.25;;;;;6.03;100.00;101886.09;4932000;28;49789;-72
2023/01/20 20:05:44;;;;;;;;;23.25;20.50;;;;;5.91;100.00;101856.72;4931497;28;49785;-66
2023/01/20 20:08:10;;;;;;;;;28.00;25.25;;;;;6.14;100.00;101913.66;4931405;28;65541;-73
2023/01/20 21:36:51;;;;;;;;;21.75;19.00;;;;;4.65;100.00;101730.41;5253016;23;49786;-62